Latest Weather Observations for Tennant Creek

IDD60801

Issued at 9:05 pm CST Saturday 20 September 2014 (issued every 30 minutes, with the page automatically refreshed every 10 minutes)

About weather observations | Map of weather stations | Latest weather observations for NT | Other Formats
Station Details ID: 015135 Name: TENNANT CREEK AIRPORT Lat: -19.64 Lon: 134.18 Height: 375.7 m
Data from the previous 72 hours. | See also: Recent months at Tennant Creek
Date/Time
CST
Temp
°C
App
Temp
°C
Dew
Point
Rel
Hum
%
Delta-T
°C
Wind Press
QNH
hPa
Press
MSL
hPa
Rain
since 9 am
mm
Dir
 
Spd
km/h
Gust
km/h
Spd
kts
Gust
kts
20/09:00pm 24.9 22.7 5.3 28 10.1 W 6 6 3 3 1015.2 1013.2 0.0
20/08:30pm 25.7 24.7 5.8 28 10.4 W 0 0 0 0 1015.1 - 0.0
20/08:00pm 27.2 25.2 6.4 26 11.1 WSW 6 7 3 4 1014.7 - 0.0
20/07:30pm 28.8 26.0 3.0 19 13.1 WSW 7 9 4 5 1014.6 - 0.0
20/07:00pm 30.2 27.6 4.2 19 13.6 SW 7 9 4 5 1014.2 - 0.0
20/06:30pm 32.2 28.2 -1.9 11 16.3 SW 9 11 5 6 1013.9 - 0.0
20/06:00pm 33.9 29.1 -5.7 7 18.0 SW 11 17 6 9 1013.6 1011.6 0.0
20/05:30pm 34.6 30.0 -3.8 8 18.1 SSW 11 26 6 14 1013.3 - 0.0
20/05:00pm 35.2 29.9 -4.0 8 18.5 W 15 28 8 15 1013.2 - 0.0
20/04:30pm 35.9 30.7 -5.7 7 19.2 SW 13 26 7 14 1013.0 - 0.0
20/04:00pm 34.8 30.4 -6.1 7 18.6 SW 9 24 5 13 1012.9 - 0.0
20/03:30pm 36.0 29.6 -6.7 6 19.4 SSW 19 28 10 15 1013.0 - 0.0
20/03:00pm 36.1 30.6 -5.6 7 19.3 NW 15 28 8 15 1013.2 1011.2 0.0
20/02:30pm 35.4 31.0 -2.3 9 18.3 W 11 33 6 18 1013.5 - 0.0
20/02:00pm 35.7 30.7 -4.1 8 18.8 WNW 13 24 7 13 1013.9 - 0.0
20/01:30pm 34.4 28.5 -5.8 7 18.3 NNW 17 26 9 14 1014.5 - 0.0
20/01:00pm 34.6 28.6 -6.3 7 18.5 NNW 17 28 9 15 1014.8 - 0.0
20/12:30pm 33.9 27.7 -5.2 8 17.9 N 19 39 10 21 1015.4 - 0.0
20/12:00pm 33.9 27.0 -6.5 7 18.1 N 22 32 12 17 1015.9 1013.9 0.0
20/11:30am 34.1 26.1 -5.7 7 18.1 N 28 35 15 19 1016.5 - 0.0
20/11:00am 32.4 23.9 -7.0 7 17.3 N 30 39 16 21 1016.8 - 0.0
20/10:30am 32.2 23.4 -6.5 8 17.1 N 32 44 17 24 1017.0 - 0.0
20/10:00am 30.5 23.8 -4.0 10 15.7 N 22 30 12 16 1017.2 - 0.0
20/09:30am 28.7 22.7 -2.7 13 14.4 NNW 19 26 10 14 1017.3 - 0.0
20/09:00am 27.9 22.0 -2.0 14 13.8 N 19 26 10 14 1017.1 1015.2 0.0
20/08:30am 26.2 20.4 -1.8 16 12.8 N 19 26 10 14 1016.9 - 0.0
20/08:00am 24.6 19.2 -1.3 18 11.8 N 17 24 9 13 1016.8 - 0.0
20/07:30am 23.8 17.9 -1.0 19 11.3 N 20 28 11 15 1016.6 - 0.0
20/07:00am 23.1 17.8 -0.5 21 10.8 N 17 24 9 13 1016.1 - 0.0
20/06:30am 21.2 15.5 -0.6 23 9.8 N 19 24 10 13 1015.9 - 0.0
20/06:00am 21.1 15.8 -0.8 23 9.8 NNE 17 24 9 13 1015.8 1013.8 0.0
20/05:30am 21.9 16.2 -1.1 21 10.3 NNE 19 24 10 13 1015.6 - 0.0
20/05:00am 23.4 17.4 -1.5 19 11.2 NNE 20 28 11 15 1015.5 - 0.0
20/04:30am 22.9 17.9 -0.9 20 10.8 NNE 15 20 8 11 1015.0 - 0.0
20/04:00am 22.8 17.9 -0.3 21 10.6 NNE 15 17 8 9 1015.2 - 0.0
20/03:30am 23.3 18.8 -0.1 21 10.8 NNE 13 15 7 8 1015.3 - 0.0
20/03:00am 23.5 18.9 -1.2 19 11.2 NNE 13 17 7 9 1015.4 1013.4 0.0
20/02:30am 23.4 18.6 0.1 21 10.8 NNE 15 17 8 9 1015.6 - 0.0
20/02:00am 23.3 19.3 0.7 22 10.6 NNE 11 15 6 8 1015.8 - 0.0
20/01:30am 23.2 20.0 0.8 23 10.5 NNE 7 11 4 6 1016.1 - 0.0
20/01:00am 23.9 19.6 0.8 22 10.9 NNE 13 15 7 8 1016.3 - 0.0
20/12:30am 24.1 19.5 -1.1 19 11.5 NNE 13 15 7 8 1016.4 - 0.0
20/12:00am 23.5 19.0 -0.1 21 10.9 NNE 13 13 7 7 1016.7 1014.8 0.0
 
Date/Time
CST
Temp
°C
App
Temp
°C
Dew
Point
Rel
Hum
%
Delta-T
°C
Wind Press
QNH
hPa
Press
MSL
hPa
Rain
since 9 am
mm
Dir
 
Spd
km/h
Gust
km/h
Spd
kts
Gust
kts
19/11:30pm 24.0 21.2 2.1 24 10.6 NNE 6 9 3 5 1016.9 - 0.0
19/11:00pm 24.4 20.6 -0.5 19 11.5 E 9 11 5 6 1017.1 - 0.0
19/10:30pm 23.8 20.8 2.0 24 10.5 NNE 7 9 4 5 1017.1 - 0.0
19/10:00pm 23.2 19.7 -1.1 20 11.0 WNW 7 11 4 6 1017.1 - 0.0
19/09:30pm 25.6 23.5 -0.6 18 12.2 CALM 0 0 0 0 1016.8 - 0.0
19/09:00pm 24.9 23.7 4.4 26 10.4 CALM 0 0 0 0 1016.8 1014.9 0.0
19/08:30pm 25.0 22.4 3.0 24 10.9 NE 6 6 3 3 1016.7 - 0.0
19/08:00pm 26.3 23.9 4.1 24 11.3 NE 6 6 3 3 1016.4 - 0.0
19/07:30pm 28.1 26.2 0.7 17 13.3 CALM 0 0 0 0 1016.0 - 0.0
19/07:00pm 29.4 28.3 5.2 21 12.8 CALM 0 0 0 0 1015.4 - 0.0
19/06:30pm 31.1 30.4 6.9 22 13.3 CALM 0 0 0 0 1014.8 - 0.0
19/06:00pm 33.0 29.5 -2.5 10 16.9 NW 6 7 3 4 1014.5 1012.6 0.0
19/05:30pm 33.3 30.8 -1.2 11 16.8 SSE 2 9 1 5 1014.3 - 0.0
19/05:00pm 33.6 29.2 -5.6 8 17.8 ESE 9 13 5 7 1014.1 - 0.0
19/04:30pm 33.3 28.7 -3.7 9 17.3 SE 11 15 6 8 1014.0 - 0.0
19/04:00pm 33.9 29.6 -4.5 8 17.8 SE 9 17 5 9 1014.1 - 0.0
19/03:30pm 34.3 30.2 -2.7 9 17.7 SSE 9 15 5 8 1014.4 - 0.0
19/03:00pm 33.2 29.0 -3.5 9 17.2 WSW 9 17 5 9 1014.5 1012.6 0.0
19/02:30pm 34.5 29.6 -3.7 8 18.0 W 13 24 7 13 1015.1 - 0.0
19/02:00pm 34.6 30.0 -4.5 8 18.2 W 11 26 6 14 1015.5 - 0.0
19/01:30pm 32.8 28.6 -3.8 9 17.0 WNW 9 15 5 8 1016.3 - 0.0
19/01:00pm 33.3 27.0 -3.8 9 17.3 WNW 20 24 11 13 1016.8 - 0.0
19/12:30pm 33.8 28.4 -4.4 8 17.7 NW 15 28 8 15 1017.4 - 0.0
19/12:00pm 32.4 26.6 -4.6 9 16.9 N 17 24 9 13 1018.0 1016.0 0.0
19/11:30am 32.4 26.7 -3.5 10 16.7 NNE 17 39 9 21 1018.4 - 0.0
19/11:00am 31.4 25.0 -5.1 9 16.4 N 20 26 11 14 1019.0 - 0.0
19/10:30am 30.9 25.0 -5.7 9 16.2 NNW 17 24 9 13 1019.5 - 0.0
19/10:00am 30.1 24.2 -5.4 9 15.7 N 17 26 9 14 1019.6 - 0.0
19/09:30am 28.1 22.8 -3.9 12 14.3 N 15 28 8 15 1019.4 - 0.0
19/09:00am 26.7 21.7 -1.0 16 12.9 NNE 15 26 8 14 1019.5 1017.6 0.0
19/08:30am 24.9 20.5 0.6 20 11.5 NE 13 17 7 9 1019.4 - 0.0
19/08:00am 23.1 18.6 -0.6 20 10.8 ENE 13 17 7 9 1019.1 - 0.0
19/07:30am 20.6 15.9 -1.9 22 9.8 E 13 15 7 8 1018.9 - 0.0
19/07:00am 19.1 14.8 -1.4 25 8.9 E 11 15 6 8 1018.3 - 0.0
19/06:30am 18.7 14.4 -1.8 25 8.8 E 11 13 6 7 1017.9 - 0.0
19/06:00am 19.4 14.6 -2.4 23 9.3 E 13 20 7 11 1017.5 1015.6 0.0
19/05:30am 21.5 15.9 -2.9 19 10.5 ENE 17 26 9 14 1017.2 - 0.0
19/05:00am 22.4 15.8 -3.0 18 11.0 NE 22 30 12 16 1017.0 - 0.0
19/04:30am 22.2 16.0 -3.0 18 10.9 NE 20 30 11 16 1016.8 - 0.0
19/04:00am 23.1 16.6 -2.2 18 11.2 NE 22 30 12 16 1016.8 - 0.0
19/03:30am 22.4 16.9 -2.1 19 10.8 ENE 17 24 9 13 1016.6 - 0.0
19/03:00am 22.3 17.1 -2.7 18 10.9 E 15 20 8 11 1016.8 1014.9 0.0
19/02:30am 22.1 16.5 -2.8 18 10.8 E 17 22 9 12 1017.0 - 0.0
19/02:00am 23.5 17.4 -3.5 16 11.7 E 19 24 10 13 1017.1 - 0.0
19/01:30am 23.6 18.8 -2.3 17 11.5 E 13 17 7 9 1017.2 - 0.0
19/01:00am 23.7 18.9 -2.5 17 11.6 E 13 15 7 8 1017.3 - 0.0
19/12:30am 23.7 19.0 -1.7 18 11.4 E 13 15 7 8 1017.6 - 0.0
19/12:00am 23.9 19.5 -2.5 17 11.7 E 11 13 6 7 1017.9 1015.9 0.0
 
Date/Time
CST
Temp
°C
App
Temp
°C
Dew
Point
Rel
Hum
%
Delta-T
°C
Wind Press
QNH
hPa
Press
MSL
hPa
Rain
since 9 am
mm
Dir
 
Spd
km/h
Gust
km/h
Spd
kts
Gust
kts
18/11:30pm 24.2 19.3 -3.2 16 12.0 E 13 15 7 8 1018.0 - 0.0
18/11:00pm 24.5 20.0 -3.3 15 12.2 E 11 15 6 8 1018.1 - 0.0
18/10:30pm 24.0 19.5 -3.2 16 11.9 E 11 13 6 7 1018.2 - 0.0
18/10:00pm 24.7 20.3 -2.4 16 12.1 E 11 13 6 7 1018.0 - 0.0
18/09:30pm 25.0 21.7 0.0 19 11.7 E 7 9 4 5 1018.0 - 0.0
18/09:00pm 24.6 21.8 -0.1 19 11.5 E 4 9 2 5 1017.8 1015.8 0.0
18/08:30pm 24.3 22.9 3.3 25 10.4 CALM 0 0 0 0 1017.3 - 0.0
18/08:00pm 25.0 23.2 1.2 21 11.4 CALM 0 0 0 0 1016.9 - 0.0
18/07:30pm 26.1 23.5 0.9 19 12.1 ENE 4 6 2 3 1016.6 - 0.0
18/07:00pm 27.8 25.8 6.2 25 11.5 ENE 6 6 3 3 1016.2 - 0.0
18/06:30pm 30.5 27.3 0.7 14 14.7 NE 7 9 4 5 1015.9 - 0.0
18/06:00pm 31.8 27.5 -4.8 9 16.6 ENE 9 13 5 7 1015.5 1013.5 0.0
18/05:30pm 32.6 27.8 -5.6 8 17.2 E 11 17 6 9 1015.3 - 0.0
18/05:00pm 32.8 28.8 -8.1 7 17.7 ENE 6 15 3 8 1015.1 - 0.0
18/04:30pm 33.6 29.7 -5.0 8 17.7 N 7 20 4 11 1015.1 - 0.0
18/04:00pm 33.3 28.9 -5.5 8 17.6 NE 9 22 5 12 1015.2 - 0.0
18/03:30pm 33.5 29.1 -5.4 8 17.7 NNE 9 22 5 12 1015.3 - 0.0
18/03:00pm 32.9 26.5 -7.0 7 17.6 E 19 32 10 17 1015.7 1013.7 0.0
18/02:30pm 33.0 27.0 -6.7 7 17.6 NNE 17 30 9 16 1015.9 - 0.0
18/02:00pm 32.8 26.3 -7.5 7 17.6 ENE 19 30 10 16 1016.5 - 0.0
18/01:30pm 32.3 25.8 -5.5 8 17.0 NNE 20 28 11 15 1017.0 - 0.0
18/01:00pm 32.2 25.8 -7.2 7 17.2 NE 19 30 10 16 1017.8 - 0.0
18/12:30pm 31.9 24.9 -7.0 7 17.0 NE 22 33 12 18 1018.4 - 0.0
18/12:00pm 30.6 23.8 -5.5 9 16.0 NE 22 33 12 18 1019.1 1017.2 0.0
18/11:30am 29.6 22.4 -5.3 10 15.4 ENE 24 33 13 18 1019.7 - 0.0
18/11:00am 28.5 20.5 -5.5 10 14.8 ENE 28 35 15 19 1019.9 - 0.0
18/10:30am 27.3 19.7 -5.9 11 14.2 ENE 26 33 14 18 1020.3 - 0.0
18/10:00am 26.3 18.7 -5.6 12 13.6 ENE 26 35 14 19 1020.5 - 0.0
18/09:30am 24.8 16.0 -5.7 13 12.8 E 32 39 17 21 1020.5 - 0.0
18/09:00am 23.9 15.9 -5.6 13 12.3 ENE 28 41 15 22 1020.5 1018.6 0.0
18/08:30am 23.0 15.4 -5.4 14 11.8 ENE 26 32 14 17 1020.7 - 0.0
18/08:00am 21.9 15.8 -4.3 17 11.0 ENE 19 24 10 13 1020.5 - 0.0
18/07:30am 20.6 15.7 -3.2 20 10.1 NE 13 17 7 9 1020.3 - 0.0
18/07:00am 19.3 14.1 -3.1 22 9.4 NE 15 22 8 12 1019.9 - 0.0
18/06:30am 19.2 13.6 -3.3 21 9.4 ENE 17 22 9 12 1019.3 - 0.0
18/06:00am 20.1 12.9 -4.9 18 10.2 E 24 32 13 17 1018.7 1016.8 0.0
18/05:30am 20.3 13.2 -4.4 18 10.2 E 24 32 13 17 1018.3 - 0.0
18/05:00am 20.7 13.9 -4.8 17 10.5 E 22 30 12 16 1017.9 - 0.0
18/04:30am 21.8 14.6 -5.5 15 11.2 E 24 33 13 18 1017.5 - 0.0
18/04:00am 21.8 14.6 -5.5 15 11.2 E 24 32 13 17 1017.4 - 0.0
18/03:30am 22.2 15.0 -5.4 15 11.4 E 24 32 13 17 1017.3 - 0.0
18/03:00am 22.7 15.5 -5.6 14 11.7 E 24 30 13 16 1017.4 1015.5 0.0
18/02:30am 22.8 15.6 -5.4 15 11.7 E 24 32 13 17 1017.5 - 0.0
18/02:00am 23.4 16.5 -6.4 13 12.2 E 22 30 12 16 1017.5 - 0.0
18/01:30am 23.4 16.1 -5.8 14 12.1 E 24 32 13 17 1017.8 - 0.0
18/01:00am 23.9 17.0 -6.6 12 12.5 E 22 28 12 15 1018.0 - 0.0
18/12:30am 24.0 17.1 -6.3 13 12.5 E 22 28 12 15 1018.2 - 0.0
18/12:00am 24.1 18.1 -6.6 12 12.6 E 17 22 9 12 1018.2 1016.2 0.0
 
Date/Time
CST
Temp
°C
App
Temp
°C
Dew
Point
Rel
Hum
%
Delta-T
°C
Wind Press
QNH
hPa
Press
MSL
hPa
Rain
since 9 am
mm
Dir
 
Spd
km/h
Gust
km/h
Spd
kts
Gust
kts
17/11:30pm 23.5 18.4 -5.5 14 12.1 E 13 15 7 8 1018.2 - 0.0
17/11:00pm 24.4 18.8 -6.2 12 12.7 E 15 17 8 9 1018.1 - 0.0
17/10:30pm 23.4 18.7 -4.8 15 11.9 E 11 15 6 8 1018.2 - 0.0
17/10:00pm 24.1 19.8 -4.4 14 12.2 E 9 11 5 6 1018.1 - 0.0
17/09:30pm 25.5 20.3 -6.3 12 13.3 E 13 17 7 9 1017.9 - 0.0

Other Formats:

Comma delimited format used in spreadsheet applications
http://www.bom.gov.au/fwo/IDD60801/IDD60801.94238.axf

JavaScript Object Notation format (JSON) in row-major order
http://www.bom.gov.au/fwo/IDD60801/IDD60801.94238.json